createdAt,value
2023-02-15T00:00:48.495Z,62.78
2023-02-15T00:03:19.993Z,55.83
2023-02-15T00:05:50.988Z,51.22
2023-02-15T00:08:20.552Z,54.55
2023-02-15T00:10:49.887Z,47.60
2023-02-15T00:13:18.162Z,43.75
2023-02-15T00:15:46.462Z,50.50
2023-02-15T00:18:14.582Z,51.10
2023-02-15T00:20:42.700Z,55.35
2023-02-15T00:23:12.676Z,45.58
2023-02-15T00:25:40.860Z,52.53
2023-02-15T00:28:09.312Z,47.17
2023-02-15T00:30:37.657Z,43.03
2023-02-15T00:33:05.898Z,47.22
2023-02-15T00:35:34.213Z,44.47
2023-02-15T00:38:02.503Z,52.08
2023-02-15T00:40:32.013Z,52.05
2023-02-15T00:43:00.821Z,55.80
2023-02-15T00:45:29.141Z,53.95
2023-02-15T00:47:57.405Z,58.38
2023-02-15T00:50:26.987Z,53.28
2023-02-15T00:52:55.233Z,44.92
2023-02-15T00:55:23.524Z,48.83
2023-02-15T00:57:53.578Z,52.92
2023-02-15T01:00:21.983Z,48.20
2023-02-15T01:02:50.472Z,51.05
2023-02-15T01:05:18.821Z,49.85
2023-02-15T01:07:47.027Z,58.90
2023-02-15T01:10:15.310Z,56.80
2023-02-15T01:12:43.992Z,71.57
2023-02-15T01:15:13.697Z,72.65
2023-02-15T01:17:42.237Z,73.18
2023-02-15T01:20:11.011Z,58.40
2023-02-15T01:22:40.627Z,54.70
2023-02-15T01:25:09.387Z,54.85
2023-02-15T01:27:37.648Z,59.85
2023-02-15T01:30:06.582Z,62.60
2023-02-15T01:32:36.213Z,53.20
2023-02-15T01:35:04.913Z,56.17
2023-02-15T01:37:33.583Z,50.58
2023-02-15T01:40:01.842Z,61.70
2023-02-15T01:42:31.415Z,46.20
2023-02-15T01:45:00.936Z,59.10
2023-02-15T01:47:35.852Z,61.67
2023-02-15T01:50:11.687Z,51.08
2023-02-15T01:52:45.416Z,61.95
2023-02-15T01:55:14.781Z,44.35
2023-02-15T01:57:44.876Z,52.00
2023-02-15T02:00:14.917Z,65.38
2023-02-15T02:02:45.984Z,52.42
2023-02-15T02:05:15.784Z,52.90
2023-02-15T02:07:47.012Z,52.53
2023-02-15T02:10:18.354Z,58.88
2023-02-15T02:12:49.964Z,48.45
2023-02-15T02:15:18.851Z,37.55
2023-02-15T02:17:59.773Z,46.15
2023-02-15T02:21:15.514Z,49.75
2023-02-15T02:23:56.990Z,42.85
2023-02-15T02:27:05.454Z,54.83
2023-02-15T02:30:22.871Z,51.20
2023-02-15T02:33:26.997Z,54.08
2023-02-15T02:36:03.968Z,53.67
2023-02-15T02:38:44.636Z,43.85
2023-02-15T02:41:20.404Z,54.35
2023-02-15T02:43:56.977Z,53.47
2023-02-15T02:46:31.873Z,58.30
2023-02-15T02:49:01.588Z,61.28
2023-02-15T02:51:29.899Z,51.58
2023-02-15T02:54:01.844Z,51.90
2023-02-15T02:56:33.753Z,54.60
2023-02-15T02:59:06.118Z,37.90
2023-02-15T03:01:39.948Z,51.85
2023-02-15T03:04:12.531Z,50.42
2023-02-15T03:06:44.471Z,47.00
2023-02-15T03:09:17.613Z,51.75
2023-02-15T03:11:46.790Z,47.70
2023-02-15T03:14:17.110Z,49.03
2023-02-15T03:16:48.835Z,39.85
2023-02-15T03:19:24.597Z,51.13
2023-02-15T03:22:04.913Z,41.45
2023-02-15T03:24:37.359Z,54.80
2023-02-15T03:27:08.862Z,52.70
2023-02-15T03:29:38.111Z,54.90
2023-02-15T03:32:10.323Z,55.40
2023-02-15T03:34:40.402Z,53.75
2023-02-15T03:37:15.655Z,54.45
2023-02-15T03:39:51.740Z,64.63
2023-02-15T03:42:27.421Z,42.50
2023-02-15T03:45:01.740Z,43.67
2023-02-15T03:47:34.069Z,58.05
2023-02-15T03:50:26.401Z,59.63
2023-02-15T03:52:57.184Z,58.50
2023-02-15T03:55:25.911Z,49.38
2023-02-15T03:58:12.278Z,47.35
2023-02-15T04:01:03.827Z,44.45
2023-02-15T04:03:39.223Z,40.78
2023-02-15T04:06:09.168Z,43.67
2023-02-15T04:08:54.934Z,45.45
2023-02-15T04:11:23.157Z,48.22
2023-02-15T04:13:57.419Z,48.75
2023-02-15T04:16:25.114Z,47.25
2023-02-15T04:19:11.855Z,47.55
2023-02-15T04:21:58.791Z,42.83
2023-02-15T04:24:44.132Z,45.85
2023-02-15T04:27:12.548Z,50.78
2023-02-15T04:29:40.826Z,54.72
2023-02-15T04:32:08.994Z,57.97
2023-02-15T04:34:37.367Z,62.67
2023-02-15T04:37:06.988Z,43.50
2023-02-15T04:39:35.147Z,63.28
2023-02-15T04:42:03.413Z,52.50
2023-02-15T04:44:31.575Z,55.72
2023-02-15T04:46:59.748Z,41.63
2023-02-15T04:49:28.048Z,44.88
2023-02-15T04:51:56.592Z,44.33
2023-02-15T04:54:26.472Z,44.90
2023-02-15T04:56:54.728Z,46.88
2023-02-15T04:59:22.931Z,41.20
2023-02-15T05:01:51.254Z,40.80
2023-02-15T05:04:19.447Z,47.78
2023-02-15T05:06:47.911Z,46.65
2023-02-15T05:09:16.561Z,41.17
2023-02-15T05:11:46.058Z,37.78
2023-02-15T05:14:14.669Z,42.35
2023-02-15T05:16:42.935Z,47.65
2023-02-15T05:19:11.211Z,50.42
2023-02-15T05:21:39.494Z,45.45
2023-02-15T05:24:28.667Z,42.47
2023-02-15T05:27:15.846Z,45.38
2023-02-15T05:29:44.047Z,43.25
2023-02-15T05:32:15.194Z,41.83
2023-02-15T05:34:43.597Z,51.38
2023-02-15T05:37:11.820Z,44.38
2023-02-15T05:39:40.372Z,42.88
2023-02-15T05:42:10.054Z,45.72
2023-02-15T05:44:38.639Z,45.85
2023-02-15T05:47:08.314Z,42.75
2023-02-15T05:49:37.082Z,43.47
2023-02-15T05:52:05.600Z,41.80
2023-02-15T05:54:34.250Z,44.35
2023-02-15T05:57:02.888Z,42.70
2023-02-15T05:59:32.619Z,34.95
2023-02-15T06:02:00.889Z,43.75
2023-02-15T06:04:29.328Z,45.50
2023-02-15T06:06:57.562Z,50.70
2023-02-15T06:09:25.764Z,43.95
2023-02-15T06:11:54.266Z,53.20
2023-02-15T06:14:22.523Z,63.63
2023-02-15T06:16:52.433Z,50.58
2023-02-15T06:19:22.086Z,54.92
2023-02-15T06:21:50.823Z,44.83
2023-02-15T06:24:19.096Z,58.50
2023-02-15T06:26:47.318Z,56.15
2023-02-15T06:29:15.603Z,41.05
2023-02-15T06:31:44.360Z,39.53
2023-02-15T06:34:14.172Z,47.53
2023-02-15T06:36:42.357Z,48.10
2023-02-15T06:39:10.594Z,48.05
2023-02-15T06:41:38.759Z,51.70
2023-02-15T06:44:07.159Z,48.60
2023-02-15T06:46:35.678Z,43.50
2023-02-15T06:49:03.953Z,45.45
2023-02-15T06:51:35.056Z,47.60
2023-02-15T06:54:03.304Z,45.83
2023-02-15T06:56:32.234Z,43.47
2023-02-15T06:59:00.412Z,46.10
2023-02-15T07:01:28.636Z,44.72
2023-02-15T07:03:57.058Z,47.28
2023-02-15T07:06:25.655Z,45.63
2023-02-15T07:08:55.320Z,44.20
2023-02-15T07:11:40.787Z,42.47
2023-02-15T07:14:09.023Z,42.13
2023-02-15T07:16:37.272Z,54.85
2023-02-15T07:19:05.567Z,61.58
2023-02-15T07:21:33.671Z,52.08
2023-02-15T07:24:03.600Z,46.55
2023-02-15T07:26:33.768Z,44.30
2023-02-15T07:29:02.593Z,52.08
2023-02-15T07:31:31.282Z,51.13
2023-02-15T07:33:59.766Z,52.92
2023-02-15T07:36:28.040Z,58.75
2023-02-15T07:38:56.482Z,60.22
2023-02-15T07:41:26.430Z,61.60
2023-02-15T07:43:56.705Z,55.00
2023-02-15T07:46:25.071Z,62.17
2023-02-15T07:48:53.399Z,60.33
2023-02-15T07:51:22.118Z,54.83
2023-02-15T07:53:52.466Z,57.55
2023-02-15T07:56:21.067Z,50.08
2023-02-15T07:58:52.732Z,55.80
2023-02-15T08:01:22.872Z,58.80
2023-02-15T08:03:51.478Z,61.03
2023-02-15T08:06:20.141Z,60.08
2023-02-15T08:08:48.350Z,65.22
2023-02-15T08:11:33.644Z,80.00
2023-02-15T08:14:05.041Z,66.65
2023-02-15T08:16:36.329Z,60.13
2023-02-15T08:19:06.854Z,62.28
2023-02-15T08:21:36.326Z,62.15
2023-02-15T08:24:08.499Z,60.50
2023-02-15T08:26:37.461Z,63.42
2023-02-15T08:29:10.021Z,64.60
2023-02-15T08:31:39.102Z,65.88
2023-02-15T08:34:07.952Z,64.32
2023-02-15T08:36:36.672Z,68.13
2023-02-15T08:39:08.049Z,66.47
2023-02-15T08:41:37.966Z,72.95
2023-02-15T08:44:09.817Z,70.93
2023-02-15T08:46:40.015Z,74.60
2023-02-15T08:49:08.475Z,69.95
2023-02-15T08:51:39.085Z,68.57
2023-02-15T08:54:10.823Z,67.93
2023-02-15T08:56:41.044Z,70.40
2023-02-15T08:59:16.640Z,70.95
2023-02-15T09:01:45.832Z,66.95
2023-02-15T09:04:14.500Z,67.45
2023-02-15T09:06:47.711Z,67.32
2023-02-15T09:09:17.108Z,77.80
2023-02-15T09:11:47.034Z,73.90
2023-02-15T09:14:18.728Z,64.97
2023-02-15T09:16:49.995Z,69.35
2023-02-15T09:19:19.173Z,63.53
2023-02-15T09:21:52.553Z,64.75
2023-02-15T09:24:23.619Z,69.45
2023-02-15T09:26:54.648Z,73.05
2023-02-15T09:29:25.515Z,59.80
2023-02-15T09:31:54.698Z,55.90
2023-02-15T09:34:23.982Z,54.67
2023-02-15T09:36:53.230Z,56.47
2023-02-15T09:39:24.621Z,61.00
2023-02-15T09:42:23.072Z,57.55
2023-02-15T09:45:12.815Z,59.13
2023-02-15T09:48:00.705Z,53.03
2023-02-15T09:50:35.096Z,53.35
2023-02-15T09:53:22.792Z,51.42
2023-02-15T09:55:54.464Z,54.65
2023-02-15T09:58:31.407Z,51.92
2023-02-15T10:01:07.887Z,50.55
2023-02-15T10:03:53.246Z,51.58
2023-02-15T10:06:43.203Z,52.22
2023-02-15T10:09:32.498Z,50.72
2023-02-15T10:12:22.928Z,50.42
2023-02-15T10:15:12.713Z,49.92
2023-02-15T10:17:59.857Z,45.45
2023-02-15T10:20:40.579Z,45.67
2023-02-15T10:23:22.669Z,44.80
2023-02-15T10:25:54.608Z,50.22
2023-02-15T10:28:28.593Z,44.33
2023-02-15T10:31:04.027Z,47.40
2023-02-15T10:33:41.484Z,52.35
2023-02-15T10:36:26.642Z,43.15
2023-02-15T10:39:04.597Z,46.57
2023-02-15T10:41:46.243Z,43.92
2023-02-15T10:44:34.551Z,40.22
2023-02-15T10:47:29.633Z,47.80
2023-02-15T10:50:16.922Z,44.13
2023-02-15T10:53:00.726Z,42.70
2023-02-15T10:55:45.411Z,46.08
2023-02-15T10:58:17.201Z,44.28
2023-02-15T11:00:49.687Z,42.63
2023-02-15T11:03:24.915Z,44.38
2023-02-15T11:05:59.654Z,49.92
2023-02-15T11:08:34.163Z,51.97
2023-02-15T11:11:07.637Z,46.17
2023-02-15T11:13:37.987Z,46.35
2023-02-15T11:16:09.489Z,46.95
2023-02-15T11:18:41.000Z,46.92
2023-02-15T11:21:13.319Z,44.75
2023-02-15T11:23:48.082Z,50.28
2023-02-15T11:26:18.721Z,45.22
2023-02-15T11:28:50.215Z,45.42
2023-02-15T11:31:20.542Z,46.35
2023-02-15T11:33:50.811Z,44.72
2023-02-15T11:36:21.331Z,43.38
2023-02-15T11:38:55.411Z,43.72
2023-02-15T11:41:28.315Z,46.28
2023-02-15T11:44:02.457Z,45.20
2023-02-15T11:46:30.944Z,47.75
2023-02-15T11:48:59.767Z,47.33
2023-02-15T11:51:29.921Z,45.15
2023-02-15T11:53:59.501Z,41.88
2023-02-15T11:56:28.210Z,42.00
2023-02-15T11:59:00.724Z,42.40
2023-02-15T12:01:34.241Z,45.20
2023-02-15T12:04:06.529Z,44.38
2023-02-15T12:06:36.459Z,43.90
2023-02-15T12:09:26.463Z,47.03
2023-02-15T12:11:54.801Z,39.00
2023-02-15T12:14:23.162Z,49.53
2023-02-15T12:16:53.136Z,40.15
2023-02-15T12:19:34.589Z,48.65
2023-02-15T12:22:05.578Z,47.58
2023-02-15T12:24:39.436Z,49.63
2023-02-15T12:27:16.001Z,45.80
2023-02-15T12:29:46.502Z,50.15
2023-02-15T12:32:21.234Z,49.25
2023-02-15T12:34:51.205Z,47.58
2023-02-15T12:37:22.085Z,45.70
2023-02-15T12:39:57.737Z,46.42
2023-02-15T12:42:27.904Z,44.05
2023-02-15T12:44:59.349Z,43.10
2023-02-15T12:47:29.717Z,43.60
2023-02-15T12:50:18.038Z,45.15
2023-02-15T12:52:48.695Z,45.97
2023-02-15T12:55:30.879Z,42.00
2023-02-15T12:58:09.990Z,46.05
2023-02-15T13:00:38.432Z,43.35
2023-02-15T13:03:07.115Z,44.08
2023-02-15T13:05:37.202Z,42.78
2023-02-15T13:08:12.112Z,44.33
2023-02-15T13:10:45.504Z,54.55
2023-02-15T13:13:16.558Z,44.33
2023-02-15T13:15:50.481Z,45.22
2023-02-15T13:18:22.045Z,42.80
2023-02-15T13:20:52.077Z,51.30
2023-02-15T13:23:29.613Z,52.17
2023-02-15T13:26:04.572Z,50.22
2023-02-15T13:28:42.010Z,46.70
2023-02-15T13:31:16.777Z,49.90
2023-02-15T13:33:49.337Z,46.22
2023-02-15T13:36:24.231Z,46.03
2023-02-15T13:39:02.540Z,41.70
2023-02-15T13:41:36.925Z,42.28
2023-02-15T13:44:17.232Z,47.67
2023-02-15T13:46:59.823Z,42.35
2023-02-15T13:49:42.865Z,46.20
2023-02-15T13:52:22.246Z,44.40
2023-02-15T13:55:14.744Z,50.47
2023-02-15T13:58:04.034Z,42.08
2023-02-15T14:00:41.257Z,42.58
2023-02-15T14:03:43.452Z,48.88
2023-02-15T14:06:40.192Z,48.17
2023-02-15T14:09:19.902Z,46.13
2023-02-15T14:11:57.182Z,48.95
2023-02-15T14:15:00.263Z,36.88
2023-02-15T14:17:42.345Z,56.22
2023-02-15T14:20:21.926Z,46.53
2023-02-15T14:22:57.639Z,50.58
2023-02-15T14:25:31.083Z,45.88
2023-02-15T14:28:06.734Z,42.83
2023-02-15T14:30:39.260Z,44.80
2023-02-15T14:33:10.430Z,46.83
2023-02-15T14:35:39.518Z,51.08
2023-02-15T14:38:17.137Z,38.15
2023-02-15T14:41:03.032Z,42.55
2023-02-15T14:43:49.341Z,43.17
2023-02-15T14:48:55.423Z,47.92
2023-02-15T14:51:59.946Z,47.60
2023-02-15T14:54:58.240Z,48.80
2023-02-15T14:57:35.394Z,47.85
2023-02-15T15:00:41.334Z,49.45
2023-02-15T15:03:25.083Z,43.97
2023-02-15T15:05:56.040Z,51.22
2023-02-15T15:08:31.526Z,49.25
2023-02-15T15:14:13.285Z,48.78
2023-02-15T15:16:54.974Z,52.05
2023-02-15T15:20:06.108Z,44.92
2023-02-15T15:22:35.772Z,56.28
2023-02-15T15:25:05.172Z,57.10
2023-02-15T15:27:48.705Z,51.83
2023-02-15T15:30:35.987Z,42.42
2023-02-15T15:33:21.818Z,58.38
2023-02-15T15:36:00.360Z,54.15
2023-02-15T15:38:37.272Z,51.60
2023-02-15T15:41:21.386Z,57.92
2023-02-15T15:44:04.131Z,51.75
2023-02-15T15:46:42.041Z,54.10
2023-02-15T15:49:13.423Z,50.15
2023-02-15T15:51:42.796Z,50.47
2023-02-15T15:54:17.947Z,52.47
2023-02-15T15:56:47.489Z,39.80
2023-02-15T15:59:19.950Z,48.85
2023-02-15T16:01:50.474Z,53.97
2023-02-15T16:04:30.894Z,53.33
2023-02-15T16:06:59.526Z,40.03
2023-02-15T16:09:29.679Z,51.13
2023-02-15T16:12:01.558Z,55.78
2023-02-15T16:14:33.372Z,55.10
2023-02-15T16:17:04.668Z,56.08
2023-02-15T16:19:37.678Z,57.22
2023-02-15T16:22:08.596Z,57.40
2023-02-15T16:24:49.905Z,57.22
2023-02-15T16:27:30.890Z,57.25
2023-02-15T16:29:59.246Z,55.97
2023-02-15T16:32:29.524Z,61.13
2023-02-15T16:35:00.722Z,67.95
2023-02-15T16:37:33.760Z,69.68
2023-02-15T16:40:02.764Z,61.42
2023-02-15T16:42:31.155Z,69.35
2023-02-15T16:45:05.956Z,57.95
2023-02-15T16:47:38.785Z,59.75
2023-02-15T16:50:20.936Z,70.85
2023-02-15T16:52:49.365Z,63.58
2023-02-15T16:55:24.618Z,92.53
2023-02-15T16:57:54.405Z,131.98
2023-02-15T17:00:27.434Z,68.80
2023-02-15T17:03:00.015Z,70.63
2023-02-15T17:05:33.775Z,61.55
2023-02-15T17:08:14.410Z,62.35
2023-02-15T17:10:44.193Z,59.20
2023-02-15T17:13:13.849Z,66.70
2023-02-15T17:15:43.800Z,64.20
2023-02-15T17:18:19.087Z,60.90
2023-02-15T17:20:50.607Z,61.42
2023-02-15T17:23:27.839Z,63.15
2023-02-15T17:25:59.143Z,66.72
2023-02-15T17:28:30.682Z,54.70
2023-02-15T17:31:00.603Z,59.55
2023-02-15T17:33:40.381Z,59.60
2023-02-15T17:36:14.814Z,50.17
2023-02-15T17:39:03.418Z,47.70
2023-02-15T17:41:34.065Z,52.90
2023-02-15T17:44:05.413Z,50.22
2023-02-15T17:46:38.970Z,64.07
2023-02-15T17:49:07.312Z,61.40
2023-02-15T17:51:36.856Z,57.88
2023-02-15T17:54:22.678Z,52.58
2023-02-15T17:59:18.863Z,70.97
2023-02-15T18:02:07.373Z,52.95
2023-02-15T18:04:54.482Z,54.33
2023-02-15T18:07:41.914Z,55.75
2023-02-15T18:10:32.807Z,55.85
2023-02-15T18:13:01.708Z,52.65
2023-02-15T18:15:30.277Z,50.65
2023-02-15T18:17:58.697Z,74.18
2023-02-15T18:20:30.887Z,68.18
2023-02-15T18:23:02.238Z,60.55
2023-02-15T18:25:31.180Z,55.15
2023-02-15T18:27:59.639Z,41.60
2023-02-15T18:30:28.850Z,52.40
2023-02-15T18:32:58.414Z,69.22
2023-02-15T18:35:28.286Z,70.28
2023-02-15T18:37:56.945Z,70.78
2023-02-15T18:40:28.603Z,72.18
2023-02-15T18:42:57.473Z,65.47
2023-02-15T18:45:28.809Z,71.60
2023-02-15T18:47:57.268Z,70.13
2023-02-15T18:50:26.960Z,64.40
2023-02-15T18:52:55.520Z,53.13
2023-02-15T18:55:25.056Z,68.82
2023-02-15T18:57:55.851Z,70.68
2023-02-15T19:00:26.320Z,75.18
2023-02-15T19:02:54.805Z,70.03
2023-02-15T19:05:23.740Z,60.20
2023-02-15T19:07:52.427Z,66.72
2023-02-15T19:10:22.342Z,71.05
2023-02-15T19:12:51.660Z,67.45
2023-02-15T19:15:22.536Z,68.00
2023-02-15T19:17:52.167Z,65.43
2023-02-15T19:20:22.532Z,66.13
2023-02-15T19:22:52.116Z,62.45
2023-02-15T19:25:21.785Z,66.82
2023-02-15T19:27:50.248Z,73.93
2023-02-15T19:30:20.283Z,63.72
2023-02-15T19:32:50.384Z,75.70
2023-02-15T19:35:20.060Z,73.15
2023-02-15T19:37:51.343Z,73.25
2023-02-15T19:40:23.838Z,54.83
2023-02-15T19:42:52.537Z,50.55
2023-02-15T19:45:21.726Z,64.78
2023-02-15T19:47:51.955Z,58.30
2023-02-15T19:50:21.543Z,46.25
2023-02-15T19:52:50.184Z,50.20
2023-02-15T19:55:23.009Z,72.15
2023-02-15T19:57:52.329Z,76.88
2023-02-15T20:00:22.657Z,51.13
2023-02-15T20:02:52.629Z,47.90
2023-02-15T20:05:21.612Z,51.22
2023-02-15T20:07:51.469Z,40.72
2023-02-15T20:10:21.027Z,56.22
2023-02-15T20:12:49.525Z,59.28
2023-02-15T20:15:22.537Z,62.10
2023-02-15T20:17:52.535Z,67.40
2023-02-15T20:20:23.081Z,51.42
2023-02-15T20:22:53.160Z,45.55
2023-02-15T20:25:22.798Z,52.83
2023-02-15T20:27:51.005Z,56.88
2023-02-15T20:30:21.354Z,60.42
2023-02-15T20:32:51.868Z,43.72
2023-02-15T20:35:21.760Z,51.13
2023-02-15T20:37:52.274Z,65.60
2023-02-15T20:40:22.355Z,54.47
2023-02-15T20:42:51.050Z,50.78
2023-02-15T20:45:22.341Z,48.80
2023-02-15T20:47:53.178Z,55.85
2023-02-15T20:50:22.796Z,52.97
2023-02-15T20:52:52.719Z,54.60
2023-02-15T20:55:23.048Z,53.47
2023-02-15T20:57:51.627Z,69.93
2023-02-15T21:00:24.034Z,64.90
2023-02-15T21:02:56.112Z,51.85
2023-02-15T21:05:26.767Z,45.13
2023-02-15T21:07:55.510Z,49.47
2023-02-15T21:10:25.805Z,49.58
2023-02-15T21:12:54.879Z,53.53
2023-02-15T21:15:32.752Z,49.20
2023-02-15T21:18:04.744Z,45.05
2023-02-15T21:20:34.301Z,44.38
2023-02-15T21:23:05.928Z,42.55
2023-02-15T21:25:37.323Z,48.50
2023-02-15T21:28:08.499Z,50.50
2023-02-15T21:30:36.992Z,62.80
2023-02-15T21:33:06.754Z,62.50
2023-02-15T21:35:35.037Z,50.25
2023-02-15T21:38:03.396Z,48.28
2023-02-15T21:40:33.630Z,59.70
2023-02-15T21:43:34.078Z,65.07
2023-02-15T21:46:29.283Z,59.30
2023-02-15T21:48:58.869Z,59.45
2023-02-15T21:51:44.446Z,68.35
2023-02-15T21:54:14.786Z,63.45
2023-02-15T21:56:43.027Z,65.20
2023-02-15T21:59:12.870Z,57.25
2023-02-15T22:01:42.599Z,62.25
2023-02-15T22:04:16.408Z,63.90
2023-02-15T22:06:44.973Z,59.92
2023-02-15T22:09:17.357Z,63.83
2023-02-15T22:11:46.205Z,69.63
2023-02-15T22:14:36.015Z,65.20
2023-02-15T22:17:04.647Z,62.33
2023-02-15T22:19:34.390Z,63.80
2023-02-15T22:22:03.037Z,64.72
2023-02-15T22:24:31.377Z,54.58
2023-02-15T22:26:59.708Z,59.13
2023-02-15T22:29:28.076Z,64.30
2023-02-15T22:31:56.511Z,62.10
2023-02-15T22:34:27.995Z,65.30
2023-02-15T22:36:58.858Z,58.20
2023-02-15T22:39:27.603Z,53.85
2023-02-15T22:41:56.676Z,60.65
2023-02-15T22:44:28.257Z,61.97
2023-02-15T22:46:56.815Z,55.90
2023-02-15T22:49:27.322Z,64.80
2023-02-15T22:52:00.921Z,53.53
2023-02-15T22:54:34.086Z,60.90
2023-02-15T22:57:04.522Z,64.15
2023-02-15T22:59:34.268Z,51.67
2023-02-15T23:02:03.489Z,63.63
2023-02-15T23:04:32.064Z,67.93
2023-02-15T23:07:01.402Z,71.38
2023-02-15T23:09:31.355Z,70.18
2023-02-15T23:12:00.009Z,58.40
2023-02-15T23:14:29.323Z,71.13
2023-02-15T23:16:57.835Z,65.55
2023-02-15T23:19:26.561Z,64.90
2023-02-15T23:21:55.174Z,70.82
2023-02-15T23:24:24.589Z,49.05
2023-02-15T23:26:54.590Z,61.33
2023-02-15T23:29:25.606Z,68.38
2023-02-15T23:31:56.987Z,51.90
2023-02-15T23:34:28.690Z,65.18
2023-02-15T23:36:57.732Z,55.65
2023-02-15T23:39:44.999Z,69.30
2023-02-15T23:42:16.378Z,68.13
2023-02-15T23:44:45.735Z,49.08
2023-02-15T23:47:20.493Z,59.17
2023-02-15T23:49:49.031Z,69.82
2023-02-15T23:52:17.358Z,62.92
2023-02-15T23:54:45.643Z,62.25
2023-02-15T23:57:15.265Z,70.53
2023-02-15T23:59:45.668Z,67.88
